Time;durP1;ratioP1;P1;durP2;ratioP2;P2;SDS_P1;SDS_P2;PMS_P1;PMS_P2;Temp;Humidity;BMP_temperature;BMP_pressure;BME280_temperature;BME280_humidity;BME280_pressure;Samples;Min_cycle;Max_cycle;Signal;HPM_P1;HPM_P2
2022/05/25 00:01:24;;;;;;;9.15;6.88;;;13.00;99.90;;;;;;5209864;28;20052;-74
2022/05/25 00:03:56;;;;;;;13.32;8.45;;;13.00;99.90;;;;;;5215114;28;20063;-75
2022/05/25 00:06:29;;;;;;;14.68;8.23;;;13.00;99.90;;;;;;5215901;28;20052;-75
2022/05/25 00:09:01;;;;;;;12.98;8.57;;;13.00;99.90;;;;;;5213261;28;20052;-76
2022/05/25 00:11:34;;;;;;;8.60;6.38;;;12.90;99.90;;;;;;5213514;28;20045;-75
2022/05/25 00:14:07;;;;;;;21.33;9.93;;;12.90;99.90;;;;;;5213929;28;20562;-75
2022/05/25 00:16:40;;;;;;;12.55;8.25;;;13.00;99.90;;;;;;5216894;28;20041;-74
2022/05/25 00:22:03;;;;;;;13.55;8.60;;;13.00;99.90;;;;;;5197366;28;20045;-74
2022/05/25 00:24:36;;;;;;;9.88;6.55;;;13.00;99.90;;;;;;5216471;28;20052;-75
2022/05/25 00:27:08;;;;;;;12.20;8.10;;;13.00;99.90;;;;;;5218923;28;20045;-74
2022/05/25 00:29:41;;;;;;;11.07;6.50;;;13.00;99.90;;;;;;5218150;28;20056;-75
2022/05/25 00:32:13;;;;;;;10.68;6.10;;;13.10;99.90;;;;;;5220784;28;20155;-75
2022/05/25 00:34:45;;;;;;;13.18;6.78;;;13.10;99.90;;;;;;5210208;28;21223;-74
2022/05/25 00:37:18;;;;;;;9.93;6.78;;;13.10;99.90;;;;;;5213576;28;20497;-75
2022/05/25 00:39:50;;;;;;;12.65;8.05;;;13.10;99.90;;;;;;5214695;28;21516;-75
2022/05/25 00:42:23;;;;;;;12.48;7.03;;;13.10;99.90;;;;;;5217453;28;20550;-75
2022/05/25 00:44:56;;;;;;;10.82;5.38;;;13.00;99.90;;;;;;5217999;28;20417;-74
2022/05/25 00:47:30;;;;;;;8.73;5.97;;;13.10;99.90;;;;;;5218548;28;20072;-75
2022/05/25 00:50:04;;;;;;;8.32;6.22;;;13.20;99.90;;;;;;5214520;28;20107;-75
2022/05/25 00:52:38;;;;;;;9.20;6.75;;;13.20;99.90;;;;;;5215079;28;20049;-75
2022/05/25 00:55:15;;;;;;;14.52;6.07;;;13.20;99.90;;;;;;5214401;28;20052;-75
2022/05/25 00:57:49;;;;;;;11.60;7.82;;;13.10;99.90;;;;;;5204789;28;20045;-75
2022/05/25 01:00:25;;;;;;;9.63;7.55;;;13.10;99.90;;;;;;5215707;28;20044;-75
2022/05/25 01:03:08;;;;;;;13.73;7.22;;;13.10;99.90;;;;;;5215124;28;20056;-75
2022/05/25 01:06:03;;;;;;;8.10;6.32;;;13.10;99.90;;;;;;5213675;28;20045;-75
2022/05/25 01:09:17;;;;;;;13.00;6.63;;;13.10;99.90;;;;;;5217864;28;20048;-75
2022/05/25 01:11:50;;;;;;;11.40;8.32;;;13.10;99.90;;;;;;5215787;28;20057;-75
2022/05/25 01:14:28;;;;;;;11.90;8.80;;;13.00;99.90;;;;;;5212944;28;20064;-74
2022/05/25 01:17:12;;;;;;;12.63;8.85;;;13.00;99.90;;;;;;5217520;28;20059;-75
2022/05/25 01:20:13;;;;;;;;;;;13.00;99.90;;;;;;5218932;28;20045;-75
2022/05/25 01:23:31;;;;;;;11.93;6.03;;;13.00;99.90;;;;;;5167410;28;19928;-75
2022/05/25 01:26:41;;;;;;;14.75;9.38;;;13.00;99.90;;;;;;5216518;28;20060;-75
2022/05/25 01:29:22;;;;;;;11.40;6.82;;;13.10;99.90;;;;;;5214600;28;26661;-75
2022/05/25 01:32:10;;;;;;;11.38;6.82;;;13.10;99.90;;;;;;5217498;28;20464;-75
2022/05/25 01:35:09;;;;;;;10.60;6.13;;;13.20;99.90;;;;;;5216605;28;20056;-74
2022/05/25 01:38:08;;;;;;;11.30;6.50;;;13.20;99.90;;;;;;5216806;28;20040;-75
2022/05/25 01:40:54;;;;;;;7.45;6.07;;;13.20;99.90;;;;;;5211888;28;20060;-75
2022/05/25 01:43:38;;;;;;;10.30;7.32;;;13.20;99.90;;;;;;5218304;28;20523;-75
2022/05/25 01:46:25;;;;;;;12.55;6.95;;;13.20;99.90;;;;;;5216251;28;20060;-75
2022/05/25 01:49:03;;;;;;;8.20;5.28;;;13.20;99.90;;;;;;5210086;28;20059;-76
2022/05/25 01:51:43;;;;;;;12.55;8.40;;;13.20;99.90;;;;;;5219060;28;20051;-75
2022/05/25 01:54:20;;;;;;;8.95;5.57;;;13.20;99.90;;;;;;5220560;28;20048;-75
2022/05/25 01:56:55;;;;;;;9.43;5.70;;;13.20;99.90;;;;;;5206860;28;20067;-74
2022/05/25 01:59:28;;;;;;;10.18;5.90;;;13.20;99.90;;;;;;5216198;28;20068;-74
2022/05/25 02:04:59;;;;;;;12.85;7.40;;;13.30;99.90;;;;;;5212290;28;20496;-74
2022/05/25 02:07:57;;;;;;;15.50;8.15;;;13.30;99.90;;;;;;5218504;28;20045;-74
2022/05/25 02:10:44;;;;;;;11.35;6.90;;;13.20;99.90;;;;;;5215677;28;20060;-74
2022/05/25 02:13:34;;;;;;;10.38;5.43;;;13.20;99.90;;;;;;5212998;28;20053;-74
2022/05/25 02:16:21;;;;;;;12.07;6.43;;;13.20;99.90;;;;;;5215172;28;20944;-75
2022/05/25 02:19:05;;;;;;;6.43;5.15;;;13.20;99.90;;;;;;5219530;28;20051;-75
2022/05/25 02:21:48;;;;;;;9.27;5.10;;;13.30;99.90;;;;;;5223700;28;20056;-74
2022/05/25 02:24:45;;;;;;;13.73;6.80;;;13.30;99.90;;;;;;5223980;28;20044;-75
2022/05/25 02:27:28;;;;;;;8.48;5.85;;;13.20;99.90;;;;;;5214449;28;20040;-75
2022/05/25 02:30:04;;;;;;;10.55;6.32;;;13.20;99.90;;;;;;5223332;28;20051;-75
2022/05/25 02:32:48;;;;;;;11.27;6.03;;;13.20;99.90;;;;;;5220168;28;20048;-74
2022/05/25 02:35:23;;;;;;;13.27;7.00;;;13.10;99.90;;;;;;5215333;28;20049;-74
2022/05/25 02:38:02;;;;;;;13.65;6.53;;;13.10;99.90;;;;;;5223440;28;20492;-74
2022/05/25 02:40:37;;;;;;;10.93;7.88;;;13.10;99.90;;;;;;5224052;28;20052;-75
2022/05/25 02:43:10;;;;;;;10.10;5.60;;;13.10;99.90;;;;;;5221825;28;20074;-74
2022/05/25 02:45:43;;;;;;;11.68;7.10;;;13.20;99.90;;;;;;5222491;28;20041;-74
2022/05/25 02:48:15;;;;;;;6.72;5.20;;;13.20;99.90;;;;;;5223882;28;20052;-74
2022/05/25 02:50:47;;;;;;;6.45;4.82;;;13.20;99.90;;;;;;5220790;28;20060;-74
2022/05/25 02:53:22;;;;;;;11.73;6.70;;;13.10;99.90;;;;;;5206637;28;20056;-74
2022/05/25 02:55:54;;;;;;;7.53;4.53;;;13.10;99.90;;;;;;5225366;28;20071;-74
2022/05/25 02:58:27;;;;;;;6.70;5.40;;;13.10;99.90;;;;;;5223765;28;20052;-75
2022/05/25 03:01:00;;;;;;;10.80;6.07;;;13.00;99.90;;;;;;5215654;28;20052;-74
2022/05/25 03:03:35;;;;;;;;;;;13.10;99.90;;;;;;5223445;28;20040;-75
2022/05/25 03:06:09;;;;;;;12.40;7.60;;;13.00;99.90;;;;;;5216751;28;19925;-74
2022/05/25 03:08:41;;;;;;;10.13;6.10;;;13.00;99.90;;;;;;5218395;28;20048;-74
2022/05/25 03:11:13;;;;;;;15.18;9.52;;;12.90;99.90;;;;;;5218744;28;20067;-75
2022/05/25 03:13:48;;;;;;;10.13;7.75;;;12.90;99.90;;;;;;5216014;28;20041;-74
2022/05/25 03:16:22;;;;;;;21.38;10.73;;;12.90;99.90;;;;;;5209654;28;20064;-74
2022/05/25 03:18:55;;;;;;;11.93;8.32;;;12.90;99.90;;;;;;5218437;28;20036;-75
2022/05/25 03:21:28;;;;;;;14.00;6.45;;;13.00;99.90;;;;;;5218842;28;20045;-74
2022/05/25 03:24:00;;;;;;;8.80;6.50;;;13.00;99.90;;;;;;5214406;28;20060;-74
2022/05/25 03:26:33;;;;;;;7.47;5.35;;;13.00;99.90;;;;;;5217913;28;20424;-75
2022/05/25 03:29:05;;;;;;;11.82;8.00;;;13.00;99.90;;;;;;5216902;28;20056;-75
2022/05/25 03:31:38;;;;;;;10.15;8.15;;;13.10;99.90;;;;;;5211709;28;20040;-74
2022/05/25 03:34:10;;;;;;;12.80;6.93;;;13.10;99.90;;;;;;5216889;28;20378;-74
2022/05/25 03:36:43;;;;;;;11.55;7.45;;;13.10;99.90;;;;;;5216729;28;20052;-74
2022/05/25 03:39:15;;;;;;;13.70;7.53;;;13.10;99.90;;;;;;5216812;28;20044;-74
2022/05/25 03:41:58;;;;;;;9.70;6.88;;;13.10;99.90;;;;;;5209787;28;20049;-74
2022/05/25 03:44:31;;;;;;;18.83;10.40;;;13.10;99.90;;;;;;5216870;28;20076;-75
2022/05/25 03:47:03;;;;;;;13.77;7.50;;;13.10;99.90;;;;;;5207923;28;20302;-75
2022/05/25 03:49:36;;;;;;;20.65;11.38;;;13.10;99.90;;;;;;5219898;28;20439;-74
2022/05/25 03:52:10;;;;;;;19.02;11.35;;;13.10;99.90;;;;;;5213065;28;20044;-74
2022/05/25 03:54:42;;;;;;;19.88;11.85;;;13.00;99.90;;;;;;5193677;28;20505;-75
2022/05/25 03:57:15;;;;;;;23.40;12.98;;;13.00;99.90;;;;;;5197070;28;20049;-74
2022/05/25 03:59:47;;;;;;;13.40;8.40;;;13.00;99.90;;;;;;5169984;22;20239;-71
2022/05/25 04:02:20;;;;;;;23.38;13.82;;;13.00;99.90;;;;;;5093620;28;20063;-71
2022/05/25 04:05:07;;;;;;;23.38;12.40;;;13.00;99.90;;;;;;5102350;28;20499;-71
2022/05/25 04:07:42;;;;;;;14.43;9.98;;;13.00;99.90;;;;;;5103490;28;20348;-71
2022/05/25 04:10:19;;;;;;;19.73;12.80;;;13.10;99.90;;;;;;5073415;28;20055;-71
2022/05/25 04:12:52;;;;;;;27.67;16.08;;;13.10;99.90;;;;;;5082115;28;20039;-72
2022/05/25 04:15:27;;;;;;;12.38;9.38;;;13.00;99.90;;;;;;5078872;28;20039;-71
2022/05/25 04:18:00;;;;;;;15.50;10.77;;;13.00;99.90;;;;;;5082048;28;20054;-71
2022/05/25 04:20:33;;;;;;;15.67;10.83;;;13.10;99.90;;;;;;5083062;28;20051;-71
2022/05/25 04:23:09;;;;;;;12.13;9.77;;;13.10;99.90;;;;;;5081781;28;20063;-71
2022/05/25 04:25:42;;;;;;;12.75;9.50;;;13.20;99.90;;;;;;5083490;28;20044;-71
2022/05/25 04:28:14;;;;;;;11.70;8.40;;;13.20;99.90;;;;;;5084164;28;20043;-70
2022/05/25 04:30:48;;;;;;;11.90;8.45;;;13.30;99.90;;;;;;5086518;28;20043;-71
2022/05/25 04:33:20;;;;;;;21.23;11.93;;;13.30;99.90;;;;;;5083550;28;20067;-71
2022/05/25 04:35:53;;;;;;;15.30;10.32;;;13.30;99.90;;;;;;5079493;28;20070;-71
2022/05/25 04:38:25;;;;;;;9.75;6.70;;;13.30;99.90;;;;;;5076219;28;20051;-71
2022/05/25 04:40:58;;;;;;;9.07;7.25;;;13.30;99.90;;;;;;5083177;28;20055;-70
2022/05/25 04:43:31;;;;;;;8.30;6.88;;;13.30;99.90;;;;;;5080395;28;20059;-70
2022/05/25 04:46:10;;;;;;;12.63;9.55;;;13.40;99.90;;;;;;5078771;28;20058;-70
2022/05/25 04:48:44;;;;;;;10.07;7.90;;;13.40;99.90;;;;;;5078419;28;20907;-70
2022/05/25 04:51:17;;;;;;;17.23;9.60;;;13.40;99.90;;;;;;5085725;28;20091;-70
2022/05/25 04:53:49;;;;;;;16.35;11.30;;;13.40;99.90;;;;;;5089430;28;20492;-70
2022/05/25 04:59:13;;;;;;;16.95;10.85;;;13.40;99.90;;;;;;5080291;28;20039;-70
2022/05/25 05:01:45;;;;;;;20.15;11.30;;;13.40;99.90;;;;;;5077172;28;20058;-71
2022/05/25 05:04:18;;;;;;;14.90;10.68;;;13.50;99.90;;;;;;5074125;28;20061;-71
2022/05/25 05:06:51;;;;;;;13.77;8.68;;;13.50;99.90;;;;;;5077969;28;20066;-71
2022/05/25 05:09:23;;;;;;;15.07;11.20;;;13.50;99.90;;;;;;5065462;28;20059;-71
2022/05/25 05:11:56;;;;;;;13.70;8.93;;;13.60;99.90;;;;;;5058042;28;20039;-71
2022/05/25 05:14:28;;;;;;;15.18;11.02;;;13.60;99.90;;;;;;5069269;28;20048;-70
2022/05/25 05:17:05;;;;;;;18.50;12.47;;;13.60;99.90;;;;;;5070049;28;20494;-71
2022/05/25 05:20:01;;;;;;;23.02;14.15;;;13.60;99.90;;;;;;5068998;28;20213;-71
2022/05/25 05:22:34;;;;;;;24.55;15.80;;;13.60;99.90;;;;;;5073245;28;20504;-72
2022/05/25 05:25:07;;;;;;;38.27;19.77;;;13.60;99.90;;;;;;5063051;28;20489;-71
2022/05/25 05:27:40;;;;;;;26.58;17.80;;;13.50;99.90;;;;;;5071203;28;20105;-71
2022/05/25 05:30:17;;;;;;;31.10;17.77;;;13.50;99.90;;;;;;5084215;28;20047;-71
2022/05/25 05:32:49;;;;;;;26.73;17.45;;;13.50;99.90;;;;;;5066573;28;20054;-71
2022/05/25 05:35:22;;;;;;;32.15;18.30;;;13.50;99.90;;;;;;5073870;28;20471;-71
2022/05/25 05:37:56;;;;;;;30.60;18.40;;;13.50;99.90;;;;;;5073168;28;20354;-70
2022/05/25 05:40:29;;;;;;;35.75;20.08;;;13.50;99.90;;;;;;5084501;28;20603;-71
2022/05/25 05:43:04;;;;;;;30.25;18.83;;;13.50;99.90;;;;;;5086302;28;20050;-71
2022/05/25 05:45:40;;;;;;;36.10;19.95;;;13.50;99.90;;;;;;5085800;28;20062;-71
2022/05/25 05:48:20;;;;;;;27.23;17.38;;;13.50;99.90;;;;;;5088852;28;20048;-71
2022/05/25 05:50:57;;;;;;;32.53;18.27;;;13.50;99.90;;;;;;5085998;28;20052;-71
2022/05/25 05:53:30;;;;;;;30.40;18.25;;;13.50;99.90;;;;;;5087609;28;20048;-71
2022/05/25 05:56:03;;;;;;;30.05;18.98;;;13.50;99.90;;;;;;5090353;28;20982;-71
2022/05/25 05:58:36;;;;;;;26.58;16.40;;;13.50;99.90;;;;;;5083877;28;20546;-71
2022/05/25 06:01:09;;;;;;;32.10;19.00;;;13.50;99.90;;;;;;5086710;28;20090;-71
2022/05/25 06:03:41;;;;;;;29.42;19.38;;;13.50;99.90;;;;;;5089330;28;20400;-71
2022/05/25 06:06:14;;;;;;;27.77;17.65;;;13.50;99.90;;;;;;5091932;28;20703;-71
2022/05/25 06:08:46;;;;;;;22.48;14.98;;;13.50;99.90;;;;;;5091399;28;20039;-70
2022/05/25 06:11:20;;;;;;;17.55;11.85;;;13.50;99.90;;;;;;5078018;28;20047;-71
2022/05/25 06:13:52;;;;;;;;;;;13.50;99.90;;;;;;5087900;28;20419;-71
2022/05/25 06:19:25;;;;;;;15.13;9.77;;;13.50;99.90;;;;;;5085961;28;20044;-71
2022/05/25 06:22:00;;;;;;;13.48;10.27;;;13.40;99.90;;;;;;5089798;28;20047;-71
2022/05/25 06:24:44;;;;;;;16.30;10.23;;;13.40;99.90;;;;;;5089572;28;20393;-71
2022/05/25 06:27:18;;;;;;;12.40;8.95;;;13.40;99.90;;;;;;5091114;28;20559;-71
2022/05/25 06:29:51;;;;;;;21.88;11.32;;;13.40;99.90;;;;;;5089892;28;20594;-71
2022/05/25 06:32:24;;;;;;;18.67;10.52;;;13.40;99.90;;;;;;5092058;28;20487;-71
2022/05/25 06:34:57;;;;;;;23.55;13.60;;;13.40;99.90;;;;;;5093356;28;20059;-72
2022/05/25 06:37:30;;;;;;;26.50;13.43;;;13.40;99.90;;;;;;5090861;28;20242;-71
2022/05/25 06:40:03;;;;;;;28.85;12.35;;;13.40;99.90;;;;;;5092704;28;20487;-71
2022/05/25 06:42:37;;;;;;;20.97;12.47;;;13.40;99.90;;;;;;5093982;28;20331;-71
2022/05/25 06:45:13;;;;;;;23.27;14.27;;;13.40;99.90;;;;;;5094795;28;20051;-72
2022/05/25 06:47:45;;;;;;;30.27;16.15;;;13.30;99.90;;;;;;5087392;28;20067;-72
2022/05/25 06:50:18;;;;;;;21.15;13.25;;;13.40;99.90;;;;;;5100117;28;20550;-72
2022/05/25 06:52:51;;;;;;;18.10;11.23;;;13.40;99.90;;;;;;5092544;28;20054;-71
2022/05/25 06:55:23;;;;;;;17.23;11.65;;;13.40;99.90;;;;;;5095277;28;20502;-72
2022/05/25 06:57:56;;;;;;;17.98;12.15;;;13.50;99.90;;;;;;5090403;28;20052;-71
2022/05/25 07:00:28;;;;;;;20.60;13.32;;;13.50;99.90;;;;;;5095380;28;20051;-71
2022/05/25 07:03:05;;;;;;;16.70;10.93;;;13.60;99.90;;;;;;5094648;28;20059;-71
2022/05/25 07:05:37;;;;;;;24.67;14.25;;;13.60;99.90;;;;;;5092043;28;20052;-72
2022/05/25 07:08:10;;;;;;;18.23;12.30;;;13.60;99.90;;;;;;5095563;28;20419;-71
2022/05/25 07:10:45;;;;;;;17.33;12.32;;;13.70;99.90;;;;;;5094882;28;20055;-71
2022/05/25 07:13:18;;;;;;;18.83;11.63;;;13.90;99.90;;;;;;5098721;28;20043;-71
2022/05/25 07:16:05;;;;;;;16.63;11.70;;;13.80;99.90;;;;;;5092066;28;20055;-72
2022/05/25 07:18:38;;;;;;;19.73;12.30;;;13.80;99.90;;;;;;5098709;28;20051;-71
2022/05/25 07:21:14;;;;;;;22.38;13.93;;;13.80;99.90;;;;;;5090913;28;20418;-71
2022/05/25 07:23:50;;;;;;;18.15;11.80;;;13.90;99.90;;;;;;5092897;28;20051;-72
2022/05/25 07:26:24;;;;;;;20.60;13.15;;;13.90;99.90;;;;;;5095387;28;20542;-71
2022/05/25 07:28:56;;;;;;;;;;;13.90;99.90;;;;;;5093007;28;20051;-71
2022/05/25 07:31:40;;;;;;;14.00;9.75;;;13.70;99.90;;;;;;5096329;28;19926;-71
2022/05/25 07:34:18;;;;;;;17.35;11.75;;;13.70;99.90;;;;;;5101959;28;20036;-72
2022/05/25 07:36:56;;;;;;;22.25;13.15;;;13.70;99.90;;;;;;5099983;28;20046;-72
2022/05/25 07:39:36;;;;;;;15.55;9.75;;;13.70;99.90;;;;;;5101256;28;20055;-71
2022/05/25 07:42:12;;;;;;;22.95;13.05;;;13.70;99.90;;;;;;5101825;28;20047;-71
2022/05/25 07:44:57;;;;;;;16.05;9.85;;;13.80;99.90;;;;;;5102402;28;20054;-71
2022/05/25 07:47:31;;;;;;;10.77;7.80;;;13.80;99.90;;;;;;5103306;28;20055;-71
2022/05/25 07:50:05;;;;;;;14.93;8.77;;;13.80;99.90;;;;;;5095386;28;20043;-71
2022/05/25 07:52:40;;;;;;;12.27;8.55;;;13.80;99.90;;;;;;5101976;28;20495;-71
2022/05/25 07:55:13;;;;;;;13.40;8.90;;;13.90;99.90;;;;;;5100376;28;20036;-71
2022/05/25 07:57:46;;;;;;;10.60;7.50;;;14.00;99.90;;;;;;5100911;28;20063;-71
2022/05/25 08:00:21;;;;;;;12.20;7.40;;;14.10;99.90;;;;;;5100062;28;20415;-71
2022/05/25 08:05:47;;;;;;;12.05;7.20;;;14.20;99.90;;;;;;5097381;28;20078;-71
2022/05/25 08:08:23;;;;;;;14.23;8.68;;;14.20;99.90;;;;;;5100016;28;20066;-73
2022/05/25 08:11:10;;;;;;;9.77;6.47;;;14.10;99.90;;;;;;5096229;28;20043;-71
2022/05/25 08:13:46;;;;;;;10.00;6.25;;;14.00;99.90;;;;;;5092032;28;20048;-71
2022/05/25 08:16:18;;;;;;;12.95;8.02;;;14.00;99.90;;;;;;5090168;28;20047;-71
2022/05/25 08:18:50;;;;;;;9.98;5.75;;;13.90;99.90;;;;;;5086032;28;20039;-71
2022/05/25 08:21:23;;;;;;;8.88;5.22;;;13.90;99.90;;;;;;5083395;28;20534;-71
2022/05/25 08:24:15;;;;;;;6.75;3.97;;;13.90;99.90;;;;;;5086458;28;20058;-71
2022/05/25 08:26:48;;;;;;;6.95;3.53;;;13.90;99.90;;;;;;5086160;28;20066;-71
2022/05/25 08:29:24;;;;;;;4.43;3.15;;;14.00;99.90;;;;;;5089522;28;20364;-71
2022/05/25 08:31:58;;;;;;;5.43;4.18;;;14.10;99.90;;;;;;5087640;28;20419;-71
2022/05/25 08:34:31;;;;;;;8.45;4.35;;;14.30;99.90;;;;;;5087041;28;20051;-71
2022/05/25 08:37:04;;;;;;;;;;;14.30;99.90;;;;;;5095455;28;20073;-71
2022/05/25 08:39:37;;;;;;;5.57;4.07;;;14.40;99.90;;;;;;5088943;28;19927;-71
2022/05/25 08:42:14;;;;;;;9.88;4.80;;;14.50;99.90;;;;;;5091261;28;20105;-71
2022/05/25 08:44:49;;;;;;;8.18;4.00;;;14.70;99.90;;;;;;5099163;28;20074;-71
2022/05/25 08:47:22;;;;;;;8.13;3.80;;;14.80;99.90;;;;;;5105572;28;20051;-71
2022/05/25 08:49:55;;;;;;;3.85;3.17;;;14.90;99.90;;;;;;5087589;28;20048;-71
2022/05/25 08:52:36;;;;;;;4.40;2.58;;;15.00;99.90;;;;;;5078330;28;20067;-71
2022/05/25 08:55:11;;;;;;;8.27;2.75;;;15.00;99.90;;;;;;5087814;28;20043;-70
2022/05/25 08:57:50;;;;;;;6.38;2.80;;;15.00;99.90;;;;;;5080337;28;20058;-71
2022/05/25 09:00:23;;;;;;;2.78;2.50;;;15.10;99.90;;;;;;5085956;28;20055;-71
2022/05/25 09:03:10;;;;;;;2.72;1.90;;;15.10;99.90;;;;;;5087612;28;20074;-71
2022/05/25 09:06:14;;;;;;;4.20;2.15;;;15.10;99.90;;;;;;5089448;28;20054;-71
2022/05/25 09:09:17;;;;;;;1.77;1.05;;;15.10;99.90;;;;;;5087908;28;20055;-72
2022/05/25 09:11:56;;;;;;;1.27;1.17;;;15.00;99.90;;;;;;5081243;28;20051;-71
2022/05/25 09:14:44;;;;;;;3.20;1.80;;;14.80;99.90;;;;;;5085921;28;20048;-70
2022/05/25 09:17:23;;;;;;;4.78;2.10;;;14.80;99.90;;;;;;5078143;28;20043;-71
2022/05/25 09:19:56;;;;;;;1.77;1.67;;;15.00;99.90;;;;;;5088437;28;20598;-71
2022/05/25 09:22:31;;;;;;;;;;;15.20;99.90;;;;;;5076056;28;20056;-71
2022/05/25 09:25:05;;;;;;;2.95;2.00;;;15.20;99.90;;;;;;5076721;28;19926;-71
2022/05/25 09:27:43;;;;;;;5.07;2.15;;;15.30;99.90;;;;;;5070387;28;20047;-71
2022/05/25 09:30:16;;;;;;;2.47;2.28;;;15.40;99.90;;;;;;5072205;28;20052;-71
2022/05/25 09:32:54;;;;;;;2.20;1.38;;;15.60;99.90;;;;;;5084072;28;20055;-73
2022/05/25 09:35:33;;;;;;;3.33;1.75;;;15.50;99.90;;;;;;5076255;28;20047;-73
2022/05/25 09:38:13;;;;;;;3.10;2.00;;;15.50;99.90;;;;;;5070608;28;20741;-69
2022/05/25 09:40:50;;;;;;;3.40;2.25;;;15.70;99.90;;;;;;5084935;28;20054;-70
2022/05/25 09:43:24;;;;;;;4.90;2.13;;;15.70;99.90;;;;;;5082147;28;20333;-70
2022/05/25 09:46:10;;;;;;;3.88;2.05;;;15.50;99.90;;;;;;5106300;28;20063;-70
2022/05/25 09:48:50;;;;;;;3.28;1.63;;;15.60;99.90;;;;;;5091343;28;20991;-70
2022/05/25 09:51:50;;;;;;;2.53;2.33;;;15.70;99.90;;;;;;5090895;28;20059;-70
2022/05/25 09:54:46;;;;;;;3.88;1.98;;;15.70;99.90;;;;;;5084529;28;20519;-69
2022/05/25 09:57:36;;;;;;;5.43;1.95;;;15.70;99.90;;;;;;5071408;28;20045;-69
2022/05/25 10:00:22;;;;;;;1.63;1.52;;;15.90;99.90;;;;;;5072759;28;20078;-69
2022/05/25 10:03:01;;;;;;;2.50;1.70;;;16.00;99.90;;;;;;5086216;28;20051;-69
2022/05/25 10:05:52;;;;;;;1.83;1.70;;;16.20;99.90;;;;;;5080698;28;20062;-69
2022/05/25 10:08:37;;;;;;;3.17;1.35;;;16.40;99.90;;;;;;5089158;28;20051;-69
2022/05/25 10:11:33;;;;;;;1.92;1.58;;;16.40;99.90;;;;;;5084887;28;20291;-68
2022/05/25 10:14:17;;;;;;;5.68;2.13;;;16.30;99.90;;;;;;5076851;28;20043;-69
2022/05/25 10:16:50;;;;;;;2.13;1.67;;;16.30;99.90;;;;;;5078644;28;20512;-69
2022/05/25 10:19:23;;;;;;;2.00;1.30;;;16.20;99.90;;;;;;5081701;28;20617;-70
2022/05/25 10:21:58;;;;;;;2.22;1.38;;;16.40;99.90;;;;;;5090982;28;20051;-69
2022/05/25 10:24:43;;;;;;;2.40;1.70;;;16.40;99.90;;;;;;5085371;28;20066;-70
2022/05/25 10:27:28;;;;;;;2.38;1.70;;;16.30;99.90;;;;;;5082245;28;20094;-69
2022/05/25 10:39:28;;;;;;;2.72;1.80;;;16.20;99.90;;;;;;5086343;28;20047;-69
2022/05/25 10:42:00;;;;;;;1.63;1.50;;;16.00;99.90;;;;;;5085235;28;20047;-70
2022/05/25 10:44:49;;;;;;;2.72;1.70;;;15.90;99.90;;;;;;5085851;28;20055;-69
2022/05/25 10:47:31;;;;;;;1.58;1.35;;;15.90;99.90;;;;;;5086410;28;20055;-69
2022/05/25 10:50:11;;;;;;;2.58;1.55;;;15.80;99.90;;;;;;5082073;28;20047;-68
2022/05/25 10:52:49;;;;;;;1.80;1.65;;;15.90;99.90;;;;;;5088256;28;20055;-70
2022/05/25 10:55:29;;;;;;;2.55;1.63;;;15.80;99.90;;;;;;5081458;28;21756;-70
2022/05/25 10:58:39;;;;;;;4.45;1.58;;;15.80;99.90;;;;;;5083588;28;20071;-70
2022/05/25 11:01:27;;;;;;;2.80;1.50;;;15.80;99.90;;;;;;5106344;28;20056;-69
2022/05/25 11:04:05;;;;;;;3.30;1.48;;;15.70;99.90;;;;;;5070428;28;20055;-69
2022/05/25 11:07:02;;;;;;;2.30;1.75;;;15.80;99.90;;;;;;5074225;28;20063;-69
2022/05/25 11:09:56;;;;;;;3.03;1.40;;;15.70;99.90;;;;;;5081381;28;20469;-69
2022/05/25 11:12:50;;;;;;;3.75;1.50;;;15.50;99.90;;;;;;5085768;28;20062;-69
2022/05/25 11:15:47;;;;;;;2.90;1.40;;;15.50;99.90;;;;;;5085517;28;20499;-68
2022/05/25 11:18:54;;;;;;;1.95;1.70;;;15.70;99.90;;;;;;5081618;28;20051;-68
2022/05/25 11:21:44;;;;;;;2.83;1.70;;;15.90;99.90;;;;;;5084808;28;20227;-68
2022/05/25 11:25:08;;;;;;;1.63;1.30;;;16.10;99.90;;;;;;5067966;28;20061;-68
2022/05/25 11:28:09;;;;;;;1.73;1.27;;;16.30;99.90;;;;;;5101084;28;20114;-69
2022/05/25 11:31:19;;;;;;;2.15;1.48;;;16.60;99.90;;;;;;5074549;28;20047;-69
2022/05/25 11:34:23;;;;;;;2.83;1.30;;;16.80;97.90;;;;;;5078254;28;20047;-68
2022/05/25 11:37:53;;;;;;;2.85;1.30;;;17.00;99.90;;;;;;5083000;28;20552;-69
2022/05/25 11:40:51;;;;;;;2.53;1.65;;;17.40;99.90;;;;;;5097787;28;20052;-70
2022/05/25 11:43:50;;;;;;;2.10;1.38;;;17.60;99.80;;;;;;5078951;28;20527;-70
2022/05/25 11:46:47;;;;;;;2.63;1.40;;;17.60;99.90;;;;;;5085841;28;20063;-69
2022/05/25 11:50:03;;;;;;;2.30;1.05;;;17.70;96.30;;;;;;5066481;28;20048;-70
2022/05/25 11:52:54;;;;;;;1.90;0.70;;;17.60;94.20;;;;;;5076413;28;20058;-69
2022/05/25 11:56:01;;;;;;;1.75;1.00;;;17.50;92.30;;;;;;5067586;28;20058;-70
2022/05/25 11:58:49;;;;;;;1.65;1.20;;;17.40;95.20;;;;;;5102290;28;20071;-70
2022/05/25 12:01:43;;;;;;;1.58;0.95;;;17.30;93.20;;;;;;5061738;28;20058;-70
2022/05/25 12:04:29;;;;;;;1.40;1.15;;;17.30;93.20;;;;;;5074558;28;20062;-70
2022/05/25 12:07:31;;;;;;;2.60;1.30;;;17.30;95.30;;;;;;5078052;28;20052;-69
2022/05/25 12:10:26;;;;;;;1.05;0.80;;;17.50;94.50;;;;;;5075792;28;21874;-70
2022/05/25 12:12:58;;;;;;;2.22;0.93;;;17.50;93.80;;;;;;5068365;28;20071;-69
2022/05/25 12:15:35;;;;;;;1.98;1.10;;;17.70;93.60;;;;;;5079205;28;20556;-71
2022/05/25 12:18:15;;;;;;;1.77;0.93;;;17.90;91.50;;;;;;5066598;28;20051;-70
2022/05/25 12:21:07;;;;;;;1.27;1.10;;;18.10;93.00;;;;;;5079057;28;20053;-71
2022/05/25 12:23:49;;;;;;;3.00;1.00;;;18.30;92.20;;;;;;5074233;28;20544;-69
2022/05/25 12:26:26;;;;;;;8.05;1.10;;;18.50;90.70;;;;;;5091933;28;20410;-70
2022/05/25 12:29:21;;;;;;;1.08;0.90;;;18.50;92.40;;;;;;5063031;28;20067;-70
2022/05/25 12:31:56;;;;;;;4.30;1.02;;;18.50;92.00;;;;;;5085199;28;20063;-69
2022/05/25 12:34:44;;;;;;;0.73;0.73;;;18.60;83.60;;;;;;5083810;28;20058;-69
2022/05/25 12:37:36;;;;;;;1.17;0.70;;;19.10;83.50;;;;;;5082082;28;20423;-71
2022/05/25 12:40:10;;;;;;;3.33;0.60;;;19.30;78.40;;;;;;5069078;28;20663;-70
2022/05/25 12:42:45;;;;;;;1.58;0.70;;;19.20;77.70;;;;;;5075793;28;20051;-70
2022/05/25 12:48:32;;;;;;;2.55;0.93;;;19.20;81.90;;;;;;5073878;28;20052;-71
2022/05/25 12:51:11;;;;;;;2.55;0.90;;;19.00;79.50;;;;;;5061056;28;20063;-70
2022/05/25 12:53:47;;;;;;;0.98;0.90;;;19.00;79.10;;;;;;5070301;28;20180;-69
2022/05/25 12:56:19;;;;;;;1.73;1.20;;;19.30;76.90;;;;;;5069221;28;20044;-70
2022/05/25 12:58:55;;;;;;;2.22;0.90;;;19.80;78.40;;;;;;5075245;28;20632;-70
2022/05/25 13:02:06;;;;;;;4.40;0.98;;;20.30;75.70;;;;;;5082553;28;20056;-69
2022/05/25 13:04:44;;;;;;;2.42;0.90;;;21.00;81.10;;;;;;5101286;28;20562;-69
2022/05/25 13:07:37;;;;;;;2.17;0.90;;;21.70;71.30;;;;;;5080846;28;20055;-69
2022/05/25 13:10:32;;;;;;;1.67;1.08;;;21.70;74.20;;;;;;5078111;28;20483;-69
2022/05/25 13:13:37;;;;;;;1.20;0.90;;;21.60;71.70;;;;;;5079767;28;20055;-69
2022/05/25 13:16:41;;;;;;;3.20;0.80;;;21.10;74.30;;;;;;5083867;28;20048;-69
2022/05/25 13:19:14;;;;;;;1.48;0.70;;;20.80;73.30;;;;;;5086534;28;20062;-69
2022/05/25 13:21:53;;;;;;;1.25;0.93;;;20.60;72.70;;;;;;5089426;28;20055;-70
2022/05/25 13:24:44;;;;;;;10.18;1.02;;;20.50;71.00;;;;;;5068432;28;20040;-69
2022/05/25 13:27:22;;;;;;;3.70;0.98;;;20.20;72.80;;;;;;5075488;28;20611;-69
2022/05/25 13:30:28;;;;;;;4.30;1.10;;;20.10;74.30;;;;;;5058872;28;20051;-70
2022/05/25 13:33:05;;;;;;;2.20;0.80;;;20.60;77.20;;;;;;5066600;28;20279;-68
2022/05/25 13:35:44;;;;;;;3.17;1.20;;;20.30;71.40;;;;;;5068370;28;20055;-70
2022/05/25 13:38:26;;;;;;;2.58;0.90;;;20.10;75.30;;;;;;5074147;28;21649;-71
2022/05/25 13:41:13;;;;;;;2.20;1.05;;;20.00;71.80;;;;;;5076963;28;20052;-69
2022/05/25 13:43:58;;;;;;;2.63;1.10;;;19.70;74.90;;;;;;5091763;28;20047;-70
2022/05/25 13:46:46;;;;;;;0.98;0.88;;;19.30;75.20;;;;;;5074688;28;20504;-68
2022/05/25 13:49:26;;;;;;;2.33;1.13;;;18.90;75.00;;;;;;5070197;28;20056;-70
2022/05/25 13:52:29;;;;;;;1.40;1.00;;;18.90;77.60;;;;;;5093038;28;20511;-69
2022/05/25 13:55:05;;;;;;;1.75;1.10;;;18.50;76.60;;;;;;5091855;28;20415;-69
2022/05/25 13:57:51;;;;;;;2.72;1.15;;;18.30;78.50;;;;;;5085114;28;20059;-70
2022/05/25 14:00:42;;;;;;;1.55;1.20;;;18.20;79.30;;;;;;5090325;28;20070;-69
2022/05/25 14:03:17;;;;;;;2.05;0.90;;;18.30;82.50;;;;;;5095225;28;20427;-69
2022/05/25 14:05:55;;;;;;;5.30;0.93;;;18.30;81.50;;;;;;5092249;28;20060;-69
2022/05/25 14:11:50;;;;;;;;;;;18.50;85.50;;;;;;5098067;28;20055;-69
2022/05/25 14:14:34;;;;;;;2.15;1.08;;;18.70;83.20;;;;;;5095267;28;20258;-69
2022/05/25 14:17:21;;;;;;;2.88;1.13;;;18.70;80.30;;;;;;5106136;28;20058;-70